Time;durP1;ratioP1;P1;durP2;ratioP2;P2;SDS_P1;SDS_P2;PMS_P1;PMS_P2;Temp;Humidity;BMP_temperature;BMP_pressure;BME280_temperature;BME280_humidity;BME280_pressure;Samples;Min_cycle;Max_cycle;Signal;HPM_P1;HPM_P2
2022/04/10 00:00:09;;;;;;;3.33;1.87;;;;;;;8.10;54.53;97898.50;8350441;28;20232;-74
2022/04/10 00:04:12;;;;;;;3.97;2.10;;;;;;;8.12;54.13;97901.03;8352048;28;20240;-76
2022/04/10 00:08:16;;;;;;;2.50;1.80;;;;;;;8.11;54.30;97901.91;8351899;28;20247;-77
2022/04/10 00:12:20;;;;;;;4.60;2.20;;;;;;;8.02;54.30;97900.50;8351755;28;20247;-77
2022/04/10 00:16:23;;;;;;;3.53;1.87;;;;;;;7.95;54.25;97905.03;8351554;28;20550;-77
2022/04/10 00:20:26;;;;;;;3.20;1.83;;;;;;;7.95;54.68;97899.88;8351465;28;20262;-77
2022/04/10 00:24:29;;;;;;;3.87;2.20;;;;;;;8.00;54.75;97897.97;8351147;28;20427;-76
2022/04/10 00:28:33;;;;;;;2.50;1.63;;;;;;;7.99;54.23;97895.44;8351174;28;20228;-77
2022/04/10 00:32:37;;;;;;;5.17;2.10;;;;;;;7.91;54.65;97898.28;8350857;28;20236;-77
2022/04/10 00:36:39;;;;;;;4.07;2.07;;;;;;;7.84;54.30;97886.50;8350603;28;20232;-77
2022/04/10 00:40:42;;;;;;;2.20;1.90;;;;;;;7.68;54.53;97886.19;8350258;28;20565;-77
2022/04/10 00:44:47;;;;;;;4.10;1.90;;;;;;;7.92;53.91;97888.81;8350539;28;20254;-77
2022/04/10 00:48:50;;;;;;;3.17;1.70;;;;;;;7.71;54.25;97880.94;8350404;28;20224;-77
2022/04/10 00:52:53;;;;;;;3.13;2.00;;;;;;;7.77;54.11;97877.31;8350181;28;20557;-75
2022/04/10 00:56:57;;;;;;;3.57;2.10;;;;;;;7.71;53.83;97896.41;8350450;28;20597;-77
2022/04/10 01:01:01;;;;;;;3.10;2.00;;;;;;;7.72;54.01;97890.34;8350006;28;20243;-77
2022/04/10 01:05:05;;;;;;;3.53;2.10;;;;;;;7.65;53.62;97896.59;8350129;28;20562;-77
2022/04/10 01:09:08;;;;;;;3.50;2.00;;;;;;;7.69;54.19;97897.34;8349783;28;20236;-77
2022/04/10 01:13:11;;;;;;;3.80;1.97;;;;;;;7.67;53.75;97896.53;8349411;28;20295;-77
2022/04/10 01:17:16;;;;;;;4.40;2.20;;;;;;;7.65;53.74;97888.84;8349557;28;20232;-77
2022/04/10 01:21:24;;;;;;;4.33;2.40;;;;;;;7.71;53.12;97888.69;8349439;28;20244;-77
2022/04/10 01:25:28;;;;;;;4.33;2.30;;;;;;;7.68;53.14;97887.94;8349512;28;20236;-77
2022/04/10 01:29:31;;;;;;;4.50;2.70;;;;;;;7.59;53.47;97889.06;8349373;28;20227;-77
2022/04/10 01:33:34;;;;;;;4.47;2.40;;;;;;;7.56;53.32;97891.78;8349311;28;20228;-77
2022/04/10 01:37:37;;;;;;;5.30;2.30;;;;;;;7.54;53.10;97893.53;8349219;28;20559;-77
2022/04/10 01:41:42;;;;;;;5.83;2.73;;;;;;;7.39;53.47;97897.47;8349083;28;20228;-77
2022/04/10 01:45:45;;;;;;;4.50;2.53;;;;;;;7.39;53.64;97907.78;8350933;28;20200;-77
2022/04/10 01:49:48;;;;;;;5.57;2.20;;;;;;;7.35;53.76;97903.59;8350701;28;20209;-77
2022/04/10 01:53:51;;;;;;;5.77;2.17;;;;;;;7.28;53.75;97915.00;8350062;28;20228;-77
2022/04/10 01:57:56;;;;;;;3.60;2.03;;;;;;;7.19;53.73;97910.97;8350463;28;20201;-76
2022/04/10 02:01:58;;;;;;;4.83;2.40;;;;;;;7.26;53.46;97916.78;8350363;28;20391;-77
2022/04/10 02:06:02;;;;;;;3.97;2.30;;;;;;;7.26;53.45;97919.38;8350072;28;20216;-77
2022/04/10 02:10:05;;;;;;;3.37;2.33;;;;;;;7.15;53.73;97917.97;8347911;28;20243;-78
2022/04/10 02:14:12;;;;;;;6.47;2.60;;;;;;;7.08;53.72;97910.47;8347963;28;20399;-77
2022/04/10 02:18:15;;;;;;;6.53;2.67;;;;;;;7.15;53.65;97911.97;8347419;28;20228;-76
2022/04/10 02:22:18;;;;;;;5.57;2.43;;;;;;;7.20;53.37;97915.25;8348013;28;20240;-77
2022/04/10 02:26:21;;;;;;;5.97;2.60;;;;;;;6.79;54.05;97925.06;8347504;28;20238;-77
2022/04/10 02:30:25;;;;;;;4.50;2.47;;;;;;;6.89;53.86;97925.63;8347612;28;20242;-77
2022/04/10 02:34:28;;;;;;;5.03;2.90;;;;;;;6.91;53.55;97931.59;8347616;28;20232;-76
2022/04/10 02:38:31;;;;;;;4.23;2.60;;;;;;;6.88;54.08;97935.09;8347740;28;20228;-77
2022/04/10 02:42:36;;;;;;;6.87;2.73;;;;;;;7.01;53.65;97935.59;8347259;28;20251;-77
2022/04/10 02:46:40;;;;;;;7.87;2.97;;;;;;;7.04;53.59;97931.19;8347308;28;20232;-77
2022/04/10 02:50:43;;;;;;;6.17;2.73;;;;;;;6.96;53.48;97933.13;8346903;28;20243;-77
2022/04/10 02:54:46;;;;;;;4.80;2.77;;;;;;;6.91;53.58;97934.16;8346731;28;20237;-77
2022/04/10 02:58:49;;;;;;;5.47;3.30;;;;;;;6.88;53.42;97935.09;8347035;28;20420;-78
2022/04/10 03:02:53;;;;;;;4.93;3.17;;;;;;;6.86;53.89;97931.72;8346630;28;20234;-77
2022/04/10 03:06:57;;;;;;;5.83;3.07;;;;;;;6.82;53.57;97936.13;8352291;28;20223;-77
2022/04/10 03:11:00;;;;;;;4.53;2.37;;;;;;;6.88;53.98;97934.28;8353248;28;20243;-77
2022/04/10 03:15:03;;;;;;;5.80;2.90;;;;;;;6.67;54.02;97939.16;8353405;28;20232;-77
2022/04/10 03:19:07;;;;;;;5.93;3.20;;;;;;;6.76;53.71;97938.03;8353419;28;20551;-77
2022/04/10 03:23:10;;;;;;;7.83;3.00;;;;;;;6.79;53.71;97941.34;8352641;28;20254;-77
2022/04/10 03:27:13;;;;;;;6.70;2.90;;;;;;;6.82;53.32;97946.44;8352990;28;20239;-76
2022/04/10 03:31:16;;;;;;;5.80;3.23;;;;;;;6.76;54.11;97953.47;8352992;28;20407;-77
2022/04/10 03:35:21;;;;;;;5.03;2.83;;;;;;;6.67;54.08;97956.34;8352837;28;20238;-77
2022/04/10 03:39:24;;;;;;;5.67;3.00;;;;;;;6.78;54.02;97962.00;8352561;28;20238;-78
2022/04/10 03:43:27;;;;;;;6.23;3.30;;;;;;;6.73;53.61;97962.13;8352342;28;20566;-77
2022/04/10 03:47:30;;;;;;;6.43;3.10;;;;;;;6.71;53.78;97960.50;8352590;28;20288;-78
2022/04/10 03:51:34;;;;;;;5.83;3.00;;;;;;;6.82;53.50;97967.03;8352146;28;20231;-78
2022/04/10 03:55:37;;;;;;;6.63;3.37;;;;;;;6.72;53.41;97965.59;8351873;28;20232;-77
2022/04/10 03:59:40;;;;;;;5.30;3.03;;;;;;;6.77;53.18;97968.88;8352153;28;20402;-77
2022/04/10 04:03:42;;;;;;;5.87;3.20;;;;;;;6.61;53.07;97983.09;8351954;28;20247;-77
2022/04/10 04:07:47;;;;;;;9.90;3.60;;;;;;;6.63;53.59;97984.72;8351792;28;20247;-77
2022/04/10 04:11:49;;;;;;;6.07;3.37;;;;;;;6.61;53.01;97991.63;8351757;28;20232;-78
2022/04/10 04:15:52;;;;;;;6.40;3.33;;;;;;;6.60;53.22;98001.97;8351267;28;20423;-77
2022/04/10 04:19:55;;;;;;;6.20;3.47;;;;;;;6.40;53.80;98000.78;8351525;28;20228;-77
2022/04/10 04:24:00;;;;;;;6.50;3.37;;;;;;;6.51;53.59;98002.22;8351206;28;20422;-77
2022/04/10 04:28:03;;;;;;;5.70;3.63;;;;;;;6.41;53.49;98010.19;8351425;28;20414;-77
2022/04/10 04:32:07;;;;;;;5.97;3.73;;;;;;;6.61;53.04;98016.53;8351220;28;20239;-78
2022/04/10 04:36:09;;;;;;;7.60;3.73;;;;;;;6.43;53.55;98012.72;8342150;28;20235;-77
2022/04/10 04:40:15;;;;;;;7.13;3.70;;;;;;;6.42;53.01;98017.03;8350672;28;20423;-78
2022/04/10 04:44:18;;;;;;;5.40;3.80;;;;;;;6.33;53.10;98026.72;8350504;28;20567;-77
2022/04/10 04:48:21;;;;;;;7.07;3.57;;;;;;;6.28;53.45;98037.09;8350397;28;20232;-76
2022/04/10 04:52:24;;;;;;;8.57;4.03;;;;;;;6.37;53.09;98033.47;8350401;28;20551;-78
2022/04/10 04:56:28;;;;;;;6.70;3.80;;;;;;;6.45;53.00;98034.97;8349881;28;20240;-77
2022/04/10 05:00:31;;;;;;;6.93;4.03;;;;;;;6.38;53.19;98042.88;8350258;28;20235;-77
2022/04/10 05:04:34;;;;;;;7.13;3.80;;;;;;;6.34;53.34;98047.25;8350019;28;20418;-77
2022/04/10 05:08:37;;;;;;;8.53;4.50;;;;;;;6.54;52.81;98044.16;8350103;28;20453;-77
2022/04/10 05:12:41;;;;;;;12.20;6.93;;;;;;;6.53;52.36;98052.78;8349943;28;20542;-77
2022/04/10 05:16:44;;;;;;;16.60;8.63;;;;;;;6.35;53.07;98063.53;8349645;28;20231;-77
2022/04/10 05:20:47;;;;;;;16.33;8.57;;;;;;;6.73;52.07;98070.22;8349650;28;20235;-77
2022/04/10 05:24:50;;;;;;;12.50;6.70;;;;;;;6.72;52.48;98086.56;8349539;28;20228;-77
2022/04/10 05:28:55;;;;;;;9.70;4.43;;;;;;;6.84;51.79;98090.53;8348411;28;20239;-76
2022/04/10 05:33:01;;;;;;;9.77;4.10;;;;;;;6.98;52.20;98096.13;8349267;28;20246;-77
2022/04/10 05:37:05;;;;;;;8.60;3.67;;;;;;;7.07;51.58;98102.78;8349087;28;20228;-77
2022/04/10 05:41:08;;;;;;;9.10;3.53;;;;;;;7.54;50.61;98116.03;8348910;28;20553;-77
2022/04/10 05:45:12;;;;;;;9.03;3.00;;;;;;;7.86;49.82;98124.50;8348479;28;20228;-76
2022/04/10 05:49:16;;;;;;;9.93;3.40;;;;;;;7.92;49.26;98120.88;8348549;28;20239;-75
2022/04/10 05:53:19;;;;;;;10.37;3.60;;;;;;;7.94;49.56;98121.69;8348437;28;20267;-76
2022/04/10 05:57:22;;;;;;;5.53;3.40;;;;;;;8.41;47.56;98119.31;8348490;28;20232;-76
2022/04/10 06:01:26;;;;;;;6.20;3.17;;;;;;;8.60;48.07;98124.75;8348203;28;20240;-76
2022/04/10 06:05:31;;;;;;;7.00;3.73;;;;;;;9.00;46.70;98129.38;8348048;28;20279;-76
2022/04/10 06:09:34;;;;;;;7.63;3.80;;;;;;;9.21;46.19;98137.25;8347717;28;20236;-76
2022/04/10 06:13:37;;;;;;;7.83;3.60;;;;;;;9.81;45.44;98139.38;8347821;28;20236;-76
2022/04/10 06:17:41;;;;;;;8.10;3.40;;;;;;;9.95;45.16;98150.00;8347574;28;20311;-76
2022/04/10 06:21:44;;;;;;;5.37;3.27;;;;;;;9.92;44.83;98150.97;8347550;28;20424;-76
2022/04/10 06:25:47;;;;;;;5.47;3.33;;;;;;;10.09;43.99;98163.25;8347230;28;20231;-76
2022/04/10 06:29:50;;;;;;;10.20;4.13;;;;;;;9.82;45.02;98166.91;8347649;28;20235;-75
2022/04/10 06:33:56;;;;;;;7.57;3.47;;;;;;;10.00;44.56;98170.53;8347516;28;20243;-75
2022/04/10 06:37:59;;;;;;;9.13;3.50;;;;;;;10.22;44.30;98181.72;8347287;28;20230;-75
2022/04/10 06:42:06;;;;;;;8.20;3.87;;;;;;;10.09;42.96;98175.34;8347449;28;20244;-75
2022/04/10 06:46:09;;;;;;;10.40;3.90;;;;;;;10.88;43.01;98178.25;8346860;28;20535;-74
2022/04/10 06:50:13;;;;;;;8.30;3.60;;;;;;;11.07;42.35;98176.53;8347146;28;20295;-75
2022/04/10 06:54:16;;;;;;;8.33;3.40;;;;;;;10.95;41.12;98182.25;8346997;28;20244;-75
2022/04/10 06:58:22;;;;;;;6.73;3.40;;;;;;;10.25;43.55;98180.78;8347037;28;20242;-75
2022/04/10 07:02:25;;;;;;;8.23;3.43;;;;;;;10.20;43.18;98180.09;8347118;28;20240;-75
2022/04/10 07:06:30;;;;;;;9.07;3.60;;;;;;;9.92;44.08;98179.44;8347069;28;20294;-75
2022/04/10 07:10:33;;;;;;;6.40;3.10;;;;;;;11.14;42.00;98182.31;8346987;28;20232;-76
2022/04/10 07:14:36;;;;;;;7.90;3.37;;;;;;;10.80;41.96;98188.09;8346807;28;20240;-75
2022/04/10 07:18:39;;;;;;;8.13;3.80;;;;;;;10.87;42.39;98181.72;8347058;28;20562;-75
2022/04/10 07:27:03;;;;;;;8.77;4.00;;;;;;;11.36;42.04;98189.97;8346771;28;20242;-75
2022/04/10 07:31:07;;;;;;;7.63;3.60;;;;;;;11.81;40.57;98186.25;8346668;28;20546;-75
2022/04/10 07:35:10;;;;;;;8.17;3.50;;;;;;;11.31;40.01;98194.53;8346085;28;20232;-75
2022/04/10 07:39:15;;;;;;;9.43;3.63;;;;;;;11.91;39.44;98192.72;8346052;28;20581;-74
2022/04/10 07:43:18;;;;;;;7.80;3.13;;;;;;;12.08;39.04;98191.94;8345937;28;20574;-75
2022/04/10 07:47:27;;;;;;;8.07;3.33;;;;;;;12.23;37.97;98194.72;8346264;28;20242;-75
2022/04/10 07:51:30;;;;;;;10.00;3.60;;;;;;;12.04;37.47;98202.53;8348726;28;20537;-75
2022/04/10 07:55:34;;;;;;;9.43;3.40;;;;;;;11.37;38.89;98206.41;8351993;28;20244;-75
2022/04/10 07:59:37;;;;;;;9.03;3.30;;;;;;;11.49;39.75;98208.44;8351918;28;20232;-75
2022/04/10 08:03:40;;;;;;;11.13;3.70;;;;;;;11.59;39.25;98214.06;8351942;28;20243;-75
2022/04/10 08:07:44;;;;;;;8.17;3.30;;;;;;;11.26;39.62;98219.81;8351833;28;20542;-75
2022/04/10 08:11:48;;;;;;;8.27;3.07;;;;;;;11.21;38.23;98230.38;8351654;28;20666;-75
2022/04/10 08:15:51;;;;;;;6.90;2.83;;;;;;;12.03;37.55;98234.59;8351524;28;20250;-75
2022/04/10 08:19:54;;;;;;;10.07;3.70;;;;;;;11.91;37.24;98236.84;8351579;28;20422;-74
2022/04/10 08:23:56;;;;;;;10.33;3.47;;;;;;;12.42;36.72;98244.88;8351488;28;20594;-75
2022/04/10 08:28:01;;;;;;;9.07;3.10;;;;;;;13.35;35.45;98243.00;8351166;28;20232;-75
2022/04/10 08:32:05;;;;;;;7.97;2.90;;;;;;;14.00;35.42;98243.88;8351031;28;20232;-76
2022/04/10 08:36:08;;;;;;;7.40;2.93;;;;;;;14.01;33.43;98240.38;8350891;28;20453;-75
2022/04/10 08:40:12;;;;;;;9.37;3.23;;;;;;;14.73;33.38;98248.56;8350470;28;20262;-75
2022/04/10 08:44:17;;;;;;;7.03;2.60;;;;;;;14.52;32.15;98247.16;8350735;28;20240;-75
2022/04/10 08:48:20;;;;;;;6.83;2.50;;;;;;;14.84;31.57;98255.78;8350562;28;20231;-74
2022/04/10 08:52:23;;;;;;;6.20;2.40;;;;;;;15.18;31.95;98262.50;8350555;28;20418;-76
2022/04/10 08:56:26;;;;;;;7.70;2.10;;;;;;;14.60;31.54;98258.00;8350300;28;20253;-75
2022/04/10 09:00:30;;;;;;;3.63;1.70;;;;;;;15.99;29.92;98266.41;8350303;28;20414;-76
2022/04/10 09:04:33;;;;;;;5.57;2.00;;;;;;;14.58;30.55;98270.28;8350068;28;20259;-76
2022/04/10 09:08:38;;;;;;;5.87;2.20;;;;;;;14.96;30.11;98281.16;8349771;28;20239;-76
2022/04/10 09:12:46;;;;;;;5.63;2.20;;;;;;;14.48;31.44;98275.97;8349641;28;20232;-75
2022/04/10 09:17:09;;;;;;;5.80;2.13;;;;;;;12.91;32.56;98275.47;8349487;28;20235;-76
2022/04/10 09:21:12;;;;;;;4.90;1.80;;;;;;;13.02;33.23;98272.31;8349003;28;20431;-76
2022/04/10 09:25:17;;;;;;;5.33;2.20;;;;;;;12.54;33.98;98274.63;8349111;28;20246;-76
2022/04/10 09:29:21;;;;;;;6.47;2.10;;;;;;;13.88;32.45;98257.56;8349010;28;20543;-75
2022/04/10 09:33:25;;;;;;;7.47;2.67;;;;;;;14.46;32.27;98262.19;8348992;28;20231;-76
2022/04/10 09:37:30;;;;;;;5.47;2.23;;;;;;;13.12;32.96;98265.75;8348906;28;20435;-76
2022/04/10 09:41:33;;;;;;;5.57;2.20;;;;;;;12.55;33.85;98265.94;8348883;28;20234;-76
2022/04/10 09:45:39;;;;;;;7.00;2.00;;;;;;;14.01;33.48;98257.72;8348675;28;20228;-76
2022/04/10 09:49:44;;;;;;;6.83;2.70;;;;;;;13.68;33.07;98266.41;8348530;28;20565;-75
2022/04/10 09:54:01;;;;;;;11.50;2.70;;;;;;;15.09;32.21;98264.81;8348269;28;20232;-76
2022/04/10 09:58:07;;;;;;;6.77;2.10;;;;;;;13.97;30.83;98257.06;8348597;28;20236;-76
2022/04/10 10:02:11;;;;;;;3.70;1.70;;;;;;;14.04;31.60;98268.00;8348093;28;20514;-76
2022/04/10 10:06:19;;;;;;;5.10;2.10;;;;;;;14.00;29.96;98256.91;8348136;28;20263;-75
2022/04/10 10:10:23;;;;;;;4.80;2.10;;;;;;;13.89;29.78;98256.63;8347998;28;20236;-76
2022/04/10 10:14:26;;;;;;;4.63;1.97;;;;;;;14.79;30.62;98260.44;8347570;28;20515;-76
2022/04/10 10:18:29;;;;;;;5.87;2.17;;;;;;;13.71;31.45;98274.06;8348007;28;20563;-75
2022/04/10 10:22:33;;;;;;;4.77;2.20;;;;;;;14.50;30.25;98265.47;8347829;28;20228;-75
2022/04/10 10:26:53;;;;;;;6.33;1.90;;;;;;;13.94;30.45;98256.41;8347791;28;20228;-76
2022/04/10 10:31:11;;;;;;;3.07;1.67;;;;;;;14.01;30.29;98253.38;8347687;28;20230;-75
2022/04/10 10:35:29;;;;;;;5.23;2.23;;;;;;;15.08;29.76;98258.78;8347109;28;20448;-75
2022/04/10 10:39:45;;;;;;;7.27;1.93;;;;;;;15.42;29.47;98259.38;8347566;28;20228;-76
2022/04/10 10:43:49;;;;;;;5.67;1.73;;;;;;;13.41;29.95;98255.69;8347276;28;20232;-76
2022/04/10 10:48:03;;;;;;;5.30;1.93;;;;;;;13.20;31.24;98249.78;8347128;28;20503;-76
2022/04/10 10:52:09;;;;;;;5.70;1.87;;;;;;;13.26;31.35;98252.06;8346836;28;20239;-76
2022/04/10 10:56:20;;;;;;;5.43;2.07;;;;;;;14.10;30.60;98254.63;8346244;28;20232;-76
2022/04/10 11:00:47;;;;;;;4.73;1.80;;;;;;;13.89;31.14;98249.66;8346889;28;20228;-76
2022/04/10 11:04:52;;;;;;;5.73;2.10;;;;;;;13.98;30.15;98248.34;8346949;28;20240;-76
2022/04/10 11:08:55;;;;;;;4.70;1.70;;;;;;;13.70;31.44;98248.94;8346974;28;20419;-75
2022/04/10 11:13:04;;;;;;;5.73;3.50;;;;;;;12.73;30.69;98253.78;8346966;28;20228;-75
2022/04/10 11:17:09;;;;;;;5.27;1.80;;;;;;;12.65;31.64;98263.72;8346940;28;20240;-76
2022/04/10 11:21:14;;;;;;;4.93;1.70;;;;;;;12.67;31.06;98247.13;8344874;28;20228;-76
2022/04/10 11:25:38;;;;;;;5.33;1.73;;;;;;;12.42;31.39;98246.66;8347803;28;20473;-76
2022/04/10 11:30:02;;;;;;;5.77;1.70;;;;;;;13.96;29.06;98247.56;8353227;28;20277;-76
2022/04/10 11:34:11;;;;;;;6.17;1.90;;;;;;;13.11;31.52;98254.50;8353058;28;20246;-76
2022/04/10 11:38:17;;;;;;;5.67;1.90;;;;;;;12.92;29.52;98256.34;8352649;28;20236;-75
2022/04/10 11:42:20;;;;;;;5.77;1.80;;;;;;;12.47;31.33;98253.31;8352701;28;20299;-76
2022/04/10 11:46:24;;;;;;;5.60;1.90;;;;;;;12.99;31.95;98249.94;8352649;28;20259;-75
2022/04/10 11:50:29;;;;;;;4.77;1.87;;;;;;;12.97;31.49;98251.75;8352456;28;20243;-74
2022/04/10 11:54:35;;;;;;;7.50;1.90;;;;;;;12.68;31.85;98255.81;8352625;28;20244;-76
2022/04/10 11:58:38;;;;;;;6.00;1.60;;;;;;;12.37;31.84;98248.59;8352340;28;20228;-76
2022/04/10 12:02:43;;;;;;;4.23;1.70;;;;;;;12.40;32.19;98244.13;8352326;28;20239;-75
2022/04/10 12:06:46;;;;;;;4.77;1.40;;;;;;;12.71;31.99;98246.06;8352040;28;20236;-75
2022/04/10 12:10:53;;;;;;;6.13;1.67;;;;;;;12.74;31.57;98250.28;8351881;28;20231;-75
2022/04/10 12:14:56;;;;;;;6.73;2.03;;;;;;;12.31;33.22;98252.34;8351490;28;20228;-76
2022/04/10 12:19:00;;;;;;;5.50;1.83;;;;;;;12.21;32.93;98253.69;8351365;28;20429;-76
2022/04/10 12:23:19;;;;;;;6.23;2.10;;;;;;;12.16;34.58;98255.66;8351182;28;20417;-76
2022/04/10 12:27:22;;;;;;;6.73;2.30;;;;;;;12.75;32.84;98249.38;8344528;28;20425;-76
2022/04/10 12:31:25;;;;;;;5.77;2.10;;;;;;;12.72;32.75;98249.53;8350934;28;20239;-76
2022/04/10 12:35:36;;;;;;;6.30;2.50;;;;;;;12.51;32.70;98257.44;8350882;28;20555;-76
2022/04/10 12:39:40;;;;;;;4.93;2.13;;;;;;;13.01;32.06;98247.25;8350601;28;20242;-76
2022/04/10 12:43:43;;;;;;;4.43;1.90;;;;;;;13.48;31.78;98238.84;8350902;28;20437;-76
2022/04/10 12:47:48;;;;;;;5.13;1.90;;;;;;;13.34;33.04;98236.09;8350625;28;20228;-76
2022/04/10 12:51:54;;;;;;;5.47;2.10;;;;;;;12.98;33.69;98239.59;8350597;28;20239;-76
2022/04/10 12:55:57;;;;;;;7.37;2.17;;;;;;;12.39;33.97;98252.81;8350668;28;20236;-75
2022/04/10 13:00:00;;;;;;;6.43;2.27;;;;;;;12.27;34.69;98243.00;8350257;28;20243;-75
2022/04/10 13:04:04;;;;;;;9.67;4.80;;;;;;;12.05;35.41;98253.53;8350191;28;20247;-75
2022/04/10 13:08:12;;;;;;;9.03;4.00;;;;;;;11.81;36.00;98237.31;8350015;28;20555;-76
2022/04/10 13:12:23;;;;;;;5.53;2.30;;;;;;;13.74;34.13;98242.66;8349558;28;20228;-75
2022/04/10 13:16:29;;;;;;;6.30;2.17;;;;;;;13.11;34.34;98231.09;8349712;28;20247;-75
2022/04/10 13:20:36;;;;;;;6.40;2.33;;;;;;;12.91;34.02;98237.31;8349602;28;20290;-76
2022/04/10 13:24:40;;;;;;;9.70;2.87;;;;;;;12.71;34.54;98235.69;8349533;28;20542;-76
2022/04/10 13:28:45;;;;;;;5.97;2.50;;;;;;;12.04;34.62;98233.69;8349398;28;20538;-76
2022/04/10 13:32:48;;;;;;;7.37;2.70;;;;;;;12.55;33.98;98226.97;8349365;28;20234;-75
2022/04/10 13:36:51;;;;;;;6.17;2.27;;;;;;;13.67;31.25;98228.31;8344460;28;20223;-75
2022/04/10 13:40:55;;;;;;;8.00;2.60;;;;;;;13.86;32.17;98217.75;8359264;28;20227;-74
2022/04/10 13:45:00;;;;;;;5.93;2.50;;;;;;;13.75;32.22;98230.50;8348781;28;20399;-75
2022/04/10 13:49:03;;;;;;;6.33;2.40;;;;;;;14.31;31.77;98223.97;8347590;28;20231;-75
2022/04/10 13:53:06;;;;;;;8.77;2.20;;;;;;;13.65;32.80;98217.13;8348423;28;20236;-76
2022/04/10 13:57:11;;;;;;;7.97;2.40;;;;;;;13.23;33.02;98219.25;8347912;28;20236;-76
2022/04/10 14:01:14;;;;;;;5.30;2.30;;;;;;;13.03;34.41;98211.63;8348177;28;20232;-75
2022/04/10 14:05:17;;;;;;;5.87;2.10;;;;;;;14.14;33.02;98217.09;8347995;28;20295;-76
2022/04/10 14:09:20;;;;;;;5.87;2.67;;;;;;;13.17;33.20;98213.50;8347980;28;20254;-74
2022/04/10 14:13:24;;;;;;;6.40;2.73;;;;;;;12.81;33.14;98220.50;8347548;28;20239;-75
2022/04/10 14:17:27;;;;;;;6.67;2.50;;;;;;;13.14;34.48;98205.88;8347835;28;20282;-76
2022/04/10 14:21:31;;;;;;;5.67;2.50;;;;;;;13.72;32.78;98213.28;8347488;28;20228;-76
2022/04/10 14:25:34;;;;;;;4.77;2.10;;;;;;;13.50;33.06;98205.78;8347640;28;20299;-76
2022/04/10 14:29:39;;;;;;;4.73;2.40;;;;;;;13.33;31.97;98211.84;8347789;28;20242;-75
2022/04/10 14:33:42;;;;;;;5.60;2.20;;;;;;;12.85;32.83;98222.03;8347400;28;20239;-75
2022/04/10 14:37:45;;;;;;;5.97;2.67;;;;;;;12.51;32.12;98215.88;8347613;28;20238;-76
2022/04/10 14:41:48;;;;;;;8.30;3.17;;;;;;;12.31;32.12;98224.59;8347416;28;20534;-75
2022/04/10 14:45:52;;;;;;;6.93;2.70;;;;;;;12.15;33.22;98228.84;8347295;28;20557;-76
2022/04/10 14:49:55;;;;;;;6.33;3.50;;;;;;;12.03;33.89;98230.25;8347296;28;20232;-74
2022/04/10 14:53:58;;;;;;;6.53;3.20;;;;;;;12.35;34.46;98235.69;8347193;28;20242;-76
2022/04/10 14:58:01;;;;;;;8.73;4.20;;;;;;;13.06;32.73;98221.84;8347208;28;20238;-75
2022/04/10 15:02:06;;;;;;;5.43;3.27;;;;;;;13.56;32.34;98217.63;8356682;28;20231;-76
2022/04/10 15:06:09;;;;;;;5.33;2.50;;;;;;;13.85;32.20;98223.88;8357695;28;20418;-75
2022/04/10 15:10:12;;;;;;;4.83;2.10;;;;;;;13.64;33.45;98218.88;8357515;28;20240;-75
2022/04/10 15:14:15;;;;;;;4.30;2.00;;;;;;;12.79;33.73;98227.50;8357694;28;20234;-75
2022/04/10 15:18:22;;;;;;;8.10;3.20;;;;;;;13.04;33.13;98216.75;8358036;28;20232;-75
2022/04/10 15:22:25;;;;;;;6.17;2.47;;;;;;;12.93;33.23;98208.66;8357651;28;20239;-76
2022/04/10 15:26:28;;;;;;;7.17;2.50;;;;;;;12.52;33.28;98217.53;8357694;28;20243;-75
2022/04/10 15:30:30;;;;;;;6.33;2.17;;;;;;;12.33;33.76;98220.16;8357436;28;20446;-75
2022/04/10 15:34:35;;;;;;;5.07;2.63;;;;;;;12.28;32.72;98216.09;8357413;28;20212;-76
2022/04/10 15:38:38;;;;;;;4.90;2.30;;;;;;;12.25;33.09;98217.09;8357458;28;20242;-75
2022/04/10 15:42:41;;;;;;;5.43;1.77;;;;;;;12.17;33.40;98206.25;8357230;28;20228;-74
2022/04/10 15:46:44;;;;;;;1.00;0.73;;;;;;;13.87;61.16;98228.06;8357070;28;20231;-74
2022/04/10 15:50:49;;;;;;;6.50;2.90;;;;;;;13.62;34.45;98212.09;8356269;28;20230;-79
2022/04/10 15:54:54;;;;;;;5.97;3.20;;;;;;;12.79;33.51;98211.91;8354986;28;20238;-80
2022/04/10 15:58:57;;;;;;;6.70;3.17;;;;;;;12.41;34.69;98213.78;8356014;28;20456;-81
2022/04/10 16:03:00;;;;;;;3.37;2.20;;;;;;;11.99;34.37;98218.31;8355428;28;20274;-84
2022/04/10 16:07:04;;;;;;;5.47;2.30;;;;;;;11.94;35.32;98222.91;8355684;28;20246;-87
2022/04/10 16:11:07;;;;;;;7.20;2.63;;;;;;;12.12;35.45;98221.19;8352077;28;20230;-69
2022/04/10 16:15:11;;;;;;;6.87;2.40;;;;;;;11.97;36.29;98221.91;8350618;28;20228;-85
2022/04/10 16:19:14;;;;;;;6.37;2.30;;;;;;;12.35;35.36;98220.09;8343482;28;20223;-82
2022/04/10 16:23:20;;;;;;;4.07;1.97;;;;;;;12.55;34.46;98224.38;8351457;28;20224;-85
2022/04/10 16:31:44;;;;;;;6.57;2.10;;;;;;;12.73;34.83;98219.19;8348099;28;20531;-84
2022/04/10 16:35:47;;;;;;;5.77;2.20;;;;;;;12.63;33.96;98218.78;8350941;28;20224;-85
2022/04/10 16:39:52;;;;;;;6.13;3.13;;;;;;;12.63;33.75;98219.63;8351219;28;20224;-83
2022/04/10 16:43:55;;;;;;;4.60;2.20;;;;;;;12.46;33.55;98214.41;8351030;28;20220;-86
2022/04/10 16:47:58;;;;;;;5.03;2.47;;;;;;;12.44;33.34;98217.06;8351219;28;20228;-88
2022/04/10 16:52:01;;;;;;;5.13;2.30;;;;;;;12.08;33.82;98212.69;8351058;28;20550;-87
2022/04/10 16:56:06;;;;;;;4.17;2.20;;;;;;;12.12;34.44;98216.84;8351071;28;20242;-86
2022/04/10 17:00:12;;;;;;;6.13;2.23;;;;;;;12.03;34.47;98217.28;8341782;28;20232;-77
2022/04/10 17:04:15;;;;;;;6.97;3.20;;;;;;;11.97;34.81;98214.94;8350808;28;20236;-87
2022/04/10 17:08:17;;;;;;;5.03;2.57;;;;;;;11.91;35.01;98223.03;8350235;28;20236;-68
2022/04/10 17:12:26;;;;;;;6.17;3.17;;;;;;;11.73;34.92;98217.72;8349302;28;20232;-69
2022/04/10 17:16:29;;;;;;;5.87;2.23;;;;;;;11.84;35.43;98225.03;8349194;28;20271;-68
2022/04/10 17:20:32;;;;;;;3.83;1.70;;;;;;;11.71;34.81;98229.09;8349009;28;20527;-69
2022/04/10 17:24:36;;;;;;;3.67;2.00;;;;;;;11.68;35.05;98229.22;8348410;28;20396;-69
2022/04/10 17:28:41;;;;;;;3.70;2.20;;;;;;;11.80;35.02;98231.25;8349108;28;20429;-68
2022/04/10 17:32:44;;;;;;;2.57;2.03;;;;;;;11.62;35.71;98232.94;8348950;28;20232;-68
2022/04/10 17:36:48;;;;;;;4.90;2.40;;;;;;;11.71;35.95;98231.69;8349196;28;20246;-68
2022/04/10 17:40:51;;;;;;;10.50;6.43;;;;;;;11.67;36.11;98228.38;8348433;28;20232;-68
2022/04/10 17:44:56;;;;;;;5.87;3.00;;;;;;;11.49;36.34;98236.97;8348909;28;20243;-69
2022/04/10 17:48:59;;;;;;;3.97;2.00;;;;;;;11.47;36.83;98243.97;8348659;28;20234;-69
2022/04/10 17:53:02;;;;;;;13.53;11.43;;;;;;;11.53;37.03;98248.88;8348242;28;20335;-67
2022/04/10 17:57:05;;;;;;;7.40;3.70;;;;;;;11.32;37.46;98254.09;8348810;28;20231;-68
2022/04/10 18:01:11;;;;;;;9.80;7.87;;;;;;;11.32;38.25;98261.88;8348437;28;20236;-68
2022/04/10 18:05:14;;;;;;;7.40;3.83;;;;;;;11.33;38.18;98262.72;8347516;28;20513;-69
2022/04/10 18:09:18;;;;;;;6.70;3.73;;;;;;;11.21;38.03;98276.19;8348179;28;20244;-69
2022/04/10 18:13:24;;;;;;;6.97;3.70;;;;;;;11.12;38.69;98269.66;8347770;28;20238;-68
2022/04/10 18:17:29;;;;;;;6.70;3.50;;;;;;;10.93;38.81;98277.34;8348210;28;20561;-68
2022/04/10 18:21:32;;;;;;;5.90;4.00;;;;;;;10.96;39.99;98278.03;8347416;28;20231;-68
2022/04/10 18:25:35;;;;;;;6.67;4.90;;;;;;;10.90;39.71;98275.72;8347171;28;20223;-67
2022/04/10 18:29:38;;;;;;;7.50;5.30;;;;;;;10.82;39.83;98284.72;8346755;28;20291;-67
2022/04/10 18:33:43;;;;;;;8.57;5.60;;;;;;;10.82;40.44;98289.91;8346251;28;20224;-68
2022/04/10 18:37:46;;;;;;;10.13;5.87;;;;;;;10.72;40.17;98290.25;8347296;28;20227;-67
2022/04/10 18:41:49;;;;;;;14.70;7.57;;;;;;;10.64;41.14;98296.63;8347063;28;20235;-67
2022/04/10 18:45:52;;;;;;;23.10;15.90;;;;;;;10.58;40.54;98297.72;8346472;28;20243;-66
2022/04/10 18:49:56;;;;;;;11.13;6.83;;;;;;;10.47;40.67;98295.56;8346918;28;20220;-67
2022/04/10 18:54:00;;;;;;;11.73;6.60;;;;;;;10.36;41.15;98308.06;8346973;28;20232;-67
2022/04/10 18:58:03;;;;;;;9.47;5.03;;;;;;;10.40;40.82;98306.22;8347034;28;20236;-67
2022/04/10 19:02:08;;;;;;;4.90;3.73;;;;;;;10.32;41.22;98315.13;8346798;28;20429;-67
2022/04/10 19:06:14;;;;;;;5.17;2.90;;;;;;;10.26;41.30;98311.88;8338457;28;20232;-66
2022/04/10 19:10:17;;;;;;;7.70;4.80;;;;;;;10.24;41.73;98319.69;8345692;28;20235;-67
2022/04/10 19:14:22;;;;;;;9.77;5.17;;;;;;;10.16;41.59;98317.38;8345965;28;20231;-66
2022/04/10 19:18:24;;;;;;;20.40;13.73;;;;;;;10.09;42.36;98315.94;8346223;28;20322;-67
2022/04/10 19:22:30;;;;;;;16.67;11.07;;;;;;;10.00;42.91;98315.44;8345526;28;20227;-68